This is the latest recevied weather packets stored in our database for station/object KF0ZH. If no packets are shown the sender has not sent any weather packets the latest 1 day(s).
| Time | Temp. | Humidity | Pressure | Rain* | Wind** | Luminosity | Snow |
|---|---|---|---|---|---|---|---|
| 1778080917 | 4.44° C | 69% | 1016.6 hPa | 0 mm | 1.79 m/s, 260° | - | - |
| 1778079120 | 3.89° C | 70% | 1016.7 hPa | 0 mm | 0 m/s | - | - |
| 1778077317 | 3.89° C | 71% | 1016.6 hPa | 0 mm | 0 m/s | - | - |
| 1778075817 | 3.33° C | 70% | 1016.6 hPa | 0 mm | 0 m/s | - | - |
| 1778075518 | 3.33° C | 71% | 1016.5 hPa | 0 mm | 1.34 m/s, 298° | - | - |
| 1778074616 | 3.33° C | 71% | 1016.4 hPa | 0 mm | 0 m/s | - | - |
| 1778073717 | 3.33° C | 71% | 1016.4 hPa | 0 mm | 0 m/s | - | - |
| 1778073417 | 3.33° C | 72% | 1016.3 hPa | 0 mm | 2.68 m/s, 307° | - | - |
| 1778072817 | 3.33° C | 72% | 1016.1 hPa | 0 mm | 0 m/s | - | - |
| 1778071016 | 2.78° C | 83% | 1015.8 hPa | 0 mm | 0 m/s | - | - |
| 1778070185 | 2.22° C | 86% | 1015.6 hPa | 0 mm | 0 m/s | - | - |
| 1778070117 | 2.22° C | 86% | 1015.6 hPa | 0 mm | 0 m/s | - | - |
| 1778068617 | 0.56° C | 89% | 1015.2 hPa | 0 mm | 0 m/s | - | - |
| 1778067716 | 0° C | 91% | 1014.8 hPa | 0 mm | 0 m/s | - | - |
| 1778067417 | 0° C | 91% | 1014.8 hPa | 0 mm | 0 m/s | - | - |
| 1778067116 | 0° C | 91% | 1014.7 hPa | 0 mm | 0 m/s | - | - |
| 1778066517 | -0.56° C | 91% | 1014.6 hPa | 0 mm | 0 m/s | - | - |
| 1778065616 | -0.56° C | 90% | 1014.4 hPa | 0 mm | 0 m/s | - | - |
| 1778065016 | -0.56° C | 90% | 1014.6 hPa | 0 mm | 0 m/s | - | - |
| 1778064717 | -0.56° C | 90% | 1014.7 hPa | 0 mm | 0 m/s | - | - |
| 1778064416 | -0.56° C | 91% | 1014.7 hPa | 0 mm | 0 m/s | - | - |
| 1778064116 | -0.56° C | 91% | 1014.7 hPa | 0 mm | 0 m/s | - | - |
| 1778063816 | -0.56° C | 91% | 1014.7 hPa | 0 mm | 0 m/s | - | - |
| 1778063217 | -0.56° C | 91% | 1014.6 hPa | 0 mm | 0 m/s | - | - |
| 1778062616 | -0.56° C | 90% | 1014.5 hPa | 0 mm | 0 m/s | - | - |
* Rain latest hour (hover to see other rain measurements)
** Current wind speed in m/s (hover to see current wind gust speed)